sensor_id;sensor_type;location;lat;lon;timestamp;pressure;altitude;pressure_sealevel;temperature;humidity
44839;BME280;30576;42.098;24.876;2023-06-19T00:01:29;99481.13;;;21.95;64.37
44839;BME280;30576;42.098;24.876;2023-06-19T00:03:54;99486.13;;;21.87;64.75
44839;BME280;30576;42.098;24.876;2023-06-19T00:06:20;99488.56;;;21.77;64.58
44839;BME280;30576;42.098;24.876;2023-06-19T00:08:45;99515.06;;;21.96;64.98
44839;BME280;30576;42.098;24.876;2023-06-19T00:11:10;99479.84;;;21.73;65.05
44839;BME280;30576;42.098;24.876;2023-06-19T00:13:36;99505.78;;;21.87;64.97
44839;BME280;30576;42.098;24.876;2023-06-19T00:16:01;99459.63;;;21.68;65.14
44839;BME280;30576;42.098;24.876;2023-06-19T00:18:28;99490.34;;;21.91;64.88
44839;BME280;30576;42.098;24.876;2023-06-19T00:20:54;99504.19;;;21.85;64.73
44839;BME280;30576;42.098;24.876;2023-06-19T00:23:22;99510.00;;;21.91;64.84
44839;BME280;30576;42.098;24.876;2023-06-19T00:25:47;99497.19;;;21.82;64.94
44839;BME280;30576;42.098;24.876;2023-06-19T00:28:13;99510.41;;;21.85;65.07
44839;BME280;30576;42.098;24.876;2023-06-19T00:30:40;99500.69;;;21.97;64.59
44839;BME280;30576;42.098;24.876;2023-06-19T00:33:07;99519.91;;;21.76;65.75
44839;BME280;30576;42.098;24.876;2023-06-19T00:35:32;99501.88;;;21.78;64.90
44839;BME280;30576;42.098;24.876;2023-06-19T00:37:58;99493.69;;;21.53;65.29
44839;BME280;30576;42.098;24.876;2023-06-19T00:40:28;99525.75;;;21.69;66.06
44839;BME280;30576;42.098;24.876;2023-06-19T00:42:54;99470.38;;;21.53;65.07
44839;BME280;30576;42.098;24.876;2023-06-19T00:45:20;99518.88;;;21.64;64.97
44839;BME280;30576;42.098;24.876;2023-06-19T00:47:45;99519.53;;;21.68;65.65
44839;BME280;30576;42.098;24.876;2023-06-19T00:50:11;99504.22;;;21.41;65.62
44839;BME280;30576;42.098;24.876;2023-06-19T00:52:37;99510.81;;;21.50;66.00
44839;BME280;30576;42.098;24.876;2023-06-19T00:55:04;99489.53;;;21.47;65.96
44839;BME280;30576;42.098;24.876;2023-06-19T00:57:30;99530.66;;;21.62;66.04
44839;BME280;30576;42.098;24.876;2023-06-19T00:59:57;99496.34;;;21.38;66.18
44839;BME280;30576;42.098;24.876;2023-06-19T01:02:23;99504.69;;;21.34;66.27
44839;BME280;30576;42.098;24.876;2023-06-19T01:04:50;99498.34;;;21.35;65.65
44839;BME280;30576;42.098;24.876;2023-06-19T01:07:22;99498.81;;;21.27;66.30
44839;BME280;30576;42.098;24.876;2023-06-19T01:09:53;99504.75;;;21.03;66.36
44839;BME280;30576;42.098;24.876;2023-06-19T01:12:28;99514.34;;;21.22;65.63
44839;BME280;30576;42.098;24.876;2023-06-19T01:15:00;99474.13;;;21.07;65.74
44839;BME280;30576;42.098;24.876;2023-06-19T01:17:29;99490.88;;;21.11;66.00
44839;BME280;30576;42.098;24.876;2023-06-19T01:19:58;99520.50;;;21.53;65.07
44839;BME280;30576;42.098;24.876;2023-06-19T01:22:28;99471.34;;;21.23;65.25
44839;BME280;30576;42.098;24.876;2023-06-19T01:24:54;99494.63;;;21.37;64.88
44839;BME280;30576;42.098;24.876;2023-06-19T01:27:20;99515.50;;;21.18;65.89
44839;BME280;30576;42.098;24.876;2023-06-19T01:29:46;99514.25;;;21.38;65.34
44839;BME280;30576;42.098;24.876;2023-06-19T01:34:57;99494.34;;;21.27;64.74
44839;BME280;30576;42.098;24.876;2023-06-19T01:37:25;99478.03;;;21.16;64.57
44839;BME280;30576;42.098;24.876;2023-06-19T01:39:56;99474.03;;;21.09;64.64
44839;BME280;30576;42.098;24.876;2023-06-19T01:42:23;99496.81;;;21.02;65.86
44839;BME280;30576;42.098;24.876;2023-06-19T01:44:50;99469.16;;;21.01;64.82
44839;BME280;30576;42.098;24.876;2023-06-19T01:47:16;99495.19;;;21.14;65.11
44839;BME280;30576;42.098;24.876;2023-06-19T01:49:46;99520.75;;;21.19;65.76
44839;BME280;30576;42.098;24.876;2023-06-19T01:52:12;99524.22;;;21.21;65.89
44839;BME280;30576;42.098;24.876;2023-06-19T01:54:38;99483.00;;;21.22;64.94
44839;BME280;30576;42.098;24.876;2023-06-19T01:57:04;99486.59;;;21.23;65.34
44839;BME280;30576;42.098;24.876;2023-06-19T01:59:29;99527.38;;;21.14;65.46
44839;BME280;30576;42.098;24.876;2023-06-19T02:01:55;99511.47;;;21.10;66.12
44839;BME280;30576;42.098;24.876;2023-06-19T02:04:20;99478.59;;;20.92;65.78
44839;BME280;30576;42.098;24.876;2023-06-19T02:06:46;99496.25;;;21.11;65.30
44839;BME280;30576;42.098;24.876;2023-06-19T02:09:11;99499.41;;;21.03;65.65
44839;BME280;30576;42.098;24.876;2023-06-19T02:11:37;99490.03;;;21.10;65.16
44839;BME280;30576;42.098;24.876;2023-06-19T02:14:02;99509.00;;;21.22;65.11
44839;BME280;30576;42.098;24.876;2023-06-19T02:16:27;99519.81;;;21.20;65.46
44839;BME280;30576;42.098;24.876;2023-06-19T02:18:53;99537.16;;;21.29;65.09
44839;BME280;30576;42.098;24.876;2023-06-19T02:21:18;99517.97;;;20.92;65.74
44839;BME280;30576;42.098;24.876;2023-06-19T02:23:44;99530.63;;;21.19;65.29
44839;BME280;30576;42.098;24.876;2023-06-19T02:26:09;99505.72;;;21.31;64.45
44839;BME280;30576;42.098;24.876;2023-06-19T02:28:35;99493.25;;;21.30;64.01
44839;BME280;30576;42.098;24.876;2023-06-19T02:31:00;99508.69;;;21.26;64.40
44839;BME280;30576;42.098;24.876;2023-06-19T02:33:26;99504.47;;;21.08;64.66
44839;BME280;30576;42.098;24.876;2023-06-19T02:35:51;99524.97;;;20.95;65.13
44839;BME280;30576;42.098;24.876;2023-06-19T02:38:17;99511.75;;;21.20;65.00
44839;BME280;30576;42.098;24.876;2023-06-19T02:40:46;99506.59;;;21.17;64.25
44839;BME280;30576;42.098;24.876;2023-06-19T02:43:12;99493.47;;;21.13;64.22
44839;BME280;30576;42.098;24.876;2023-06-19T02:45:37;99500.19;;;21.20;64.36
44839;BME280;30576;42.098;24.876;2023-06-19T02:48:03;99507.66;;;21.29;63.73
44839;BME280;30576;42.098;24.876;2023-06-19T02:50:28;99510.91;;;21.34;64.19
44839;BME280;30576;42.098;24.876;2023-06-19T02:52:54;99505.75;;;21.17;65.02
44839;BME280;30576;42.098;24.876;2023-06-19T02:55:19;99522.88;;;21.00;65.75
44839;BME280;30576;42.098;24.876;2023-06-19T02:57:45;99498.31;;;20.77;66.67
44839;BME280;30576;42.098;24.876;2023-06-19T03:00:11;99526.09;;;20.90;66.35
44839;BME280;30576;42.098;24.876;2023-06-19T03:02:37;99506.94;;;20.82;66.08
44839;BME280;30576;42.098;24.876;2023-06-19T03:05:02;99538.09;;;20.99;65.67
44839;BME280;30576;42.098;24.876;2023-06-19T03:07:28;99531.28;;;21.22;64.74
44839;BME280;30576;42.098;24.876;2023-06-19T03:09:54;99536.66;;;21.22;64.60
44839;BME280;30576;42.098;24.876;2023-06-19T03:12:21;99509.47;;;21.00;64.94
44839;BME280;30576;42.098;24.876;2023-06-19T03:14:47;99509.19;;;21.04;64.75
44839;BME280;30576;42.098;24.876;2023-06-19T03:17:13;99559.75;;;21.25;65.05
44839;BME280;30576;42.098;24.876;2023-06-19T03:19:39;99522.97;;;21.13;65.07
44839;BME280;30576;42.098;24.876;2023-06-19T03:22:04;99532.28;;;21.21;64.58
44839;BME280;30576;42.098;24.876;2023-06-19T03:24:30;99506.59;;;21.03;65.23
44839;BME280;30576;42.098;24.876;2023-06-19T03:26:55;99497.16;;;20.81;65.51
44839;BME280;30576;42.098;24.876;2023-06-19T03:29:21;99544.91;;;21.19;64.78
44839;BME280;30576;42.098;24.876;2023-06-19T03:31:46;99548.38;;;21.21;64.64
44839;BME280;30576;42.098;24.876;2023-06-19T03:34:12;99521.63;;;21.20;64.49
44839;BME280;30576;42.098;24.876;2023-06-19T03:36:37;99528.53;;;21.24;64.43
44839;BME280;30576;42.098;24.876;2023-06-19T03:39:04;99487.25;;;21.12;64.17
44839;BME280;30576;42.098;24.876;2023-06-19T03:41:29;99546.50;;;21.52;64.57
44839;BME280;30576;42.098;24.876;2023-06-19T03:43:55;99539.75;;;21.31;63.82
44839;BME280;30576;42.098;24.876;2023-06-19T03:46:20;99519.28;;;21.58;63.17
44839;BME280;30576;42.098;24.876;2023-06-19T03:48:46;99539.19;;;21.69;63.42
44839;BME280;30576;42.098;24.876;2023-06-19T03:51:11;99513.78;;;21.74;63.11
44839;BME280;30576;42.098;24.876;2023-06-19T03:53:36;99560.44;;;22.00;62.49
44839;BME280;30576;42.098;24.876;2023-06-19T03:56:02;99536.09;;;21.89;63.01
44839;BME280;30576;42.098;24.876;2023-06-19T03:58:28;99554.41;;;21.97;62.92
44839;BME280;30576;42.098;24.876;2023-06-19T04:00:53;99518.97;;;21.63;63.35
44839;BME280;30576;42.098;24.876;2023-06-19T04:03:18;99530.09;;;21.71;63.91
44839;BME280;30576;42.098;24.876;2023-06-19T04:05:44;99518.09;;;21.77;62.75
44839;BME280;30576;42.098;24.876;2023-06-19T04:08:10;99533.56;;;22.00;62.73
44839;BME280;30576;42.098;24.876;2023-06-19T04:10:35;99529.84;;;22.03;62.30
44839;BME280;30576;42.098;24.876;2023-06-19T04:13:00;99524.41;;;22.17;62.49
44839;BME280;30576;42.098;24.876;2023-06-19T04:15:26;99523.81;;;22.27;61.66
44839;BME280;30576;42.098;24.876;2023-06-19T04:17:51;99493.53;;;22.10;61.14
44839;BME280;30576;42.098;24.876;2023-06-19T04:20:17;99530.16;;;22.53;60.58
44839;BME280;30576;42.098;24.876;2023-06-19T04:22:42;99517.53;;;22.68;61.58
44839;BME280;30576;42.098;24.876;2023-06-19T04:25:08;99467.00;;;22.33;61.63
44839;BME280;30576;42.098;24.876;2023-06-19T04:27:35;99462.53;;;22.59;61.21
44839;BME280;30576;42.098;24.876;2023-06-19T04:30:03;99483.25;;;22.44;61.21
44839;BME280;30576;42.098;24.876;2023-06-19T04:32:29;99500.81;;;22.63;61.72
44839;BME280;30576;42.098;24.876;2023-06-19T04:34:55;99503.66;;;22.74;61.93
44839;BME280;30576;42.098;24.876;2023-06-19T04:37:20;99525.19;;;23.00;60.17
44839;BME280;30576;42.098;24.876;2023-06-19T04:39:46;99554.94;;;23.24;60.51
44839;BME280;30576;42.098;24.876;2023-06-19T04:42:16;99540.34;;;23.01;60.70
44839;BME280;30576;42.098;24.876;2023-06-19T04:44:46;99551.81;;;23.30;59.79
44839;BME280;30576;42.098;24.876;2023-06-19T04:47:12;99525.22;;;23.38;58.60
44839;BME280;30576;42.098;24.876;2023-06-19T04:49:38;99536.09;;;23.50;58.64
44839;BME280;30576;42.098;24.876;2023-06-19T04:52:04;99565.59;;;23.51;58.38
44839;BME280;30576;42.098;24.876;2023-06-19T04:54:29;99520.16;;;23.34;58.86
44839;BME280;30576;42.098;24.876;2023-06-19T04:56:57;99548.47;;;23.65;58.58
44839;BME280;30576;42.098;24.876;2023-06-19T04:59:23;99535.81;;;23.78;57.82
44839;BME280;30576;42.098;24.876;2023-06-19T05:01:48;99516.94;;;23.54;57.18
44839;BME280;30576;42.098;24.876;2023-06-19T05:04:14;99524.31;;;23.76;58.48
44839;BME280;30576;42.098;24.876;2023-06-19T05:06:39;99484.94;;;23.50;56.90
44839;BME280;30576;42.098;24.876;2023-06-19T05:09:05;99495.72;;;23.50;57.88
44839;BME280;30576;42.098;24.876;2023-06-19T05:11:31;99551.22;;;23.89;57.73
44839;BME280;30576;42.098;24.876;2023-06-19T05:13:57;99534.72;;;23.94;56.69
44839;BME280;30576;42.098;24.876;2023-06-19T05:16:22;99506.53;;;23.87;55.57
44839;BME280;30576;42.098;24.876;2023-06-19T05:18:52;99465.38;;;23.85;57.03
44839;BME280;30576;42.098;24.876;2023-06-19T05:21:18;99504.47;;;23.90;56.16
44839;BME280;30576;42.098;24.876;2023-06-19T05:23:43;99549.59;;;24.48;56.87
44839;BME280;30576;42.098;24.876;2023-06-19T05:26:09;99527.59;;;24.30;56.10
44839;BME280;30576;42.098;24.876;2023-06-19T05:28:34;99516.88;;;24.41;55.27
44839;BME280;30576;42.098;24.876;2023-06-19T05:31:00;99529.19;;;24.33;54.27
44839;BME280;30576;42.098;24.876;2023-06-19T05:33:25;99481.22;;;24.13;54.40
44839;BME280;30576;42.098;24.876;2023-06-19T05:35:52;99489.91;;;24.41;53.38
44839;BME280;30576;42.098;24.876;2023-06-19T05:38:19;99536.97;;;24.61;53.55
44839;BME280;30576;42.098;24.876;2023-06-19T05:40:45;99482.25;;;24.24;53.30
44839;BME280;30576;42.098;24.876;2023-06-19T05:43:11;99508.38;;;24.59;53.75
44839;BME280;30576;42.098;24.876;2023-06-19T05:45:37;99548.22;;;24.91;52.64
44839;BME280;30576;42.098;24.876;2023-06-19T05:48:03;99530.66;;;24.85;51.32
44839;BME280;30576;42.098;24.876;2023-06-19T05:50:29;99555.25;;;25.16;51.52
44839;BME280;30576;42.098;24.876;2023-06-19T05:52:59;99531.44;;;25.10;51.27
44839;BME280;30576;42.098;24.876;2023-06-19T05:55:24;99502.88;;;25.07;51.29
44839;BME280;30576;42.098;24.876;2023-06-19T05:58:02;99573.75;;;25.45;48.66
44839;BME280;30576;42.098;24.876;2023-06-19T06:00:37;99499.59;;;25.15;49.80
44839;BME280;30576;42.098;24.876;2023-06-19T06:03:04;99516.31;;;25.43;49.91
44839;BME280;30576;42.098;24.876;2023-06-19T06:05:30;99486.88;;;25.40;50.49
44839;BME280;30576;42.098;24.876;2023-06-19T06:07:56;99532.28;;;25.46;49.73
44839;BME280;30576;42.098;24.876;2023-06-19T06:10:23;99509.69;;;25.35;49.09
44839;BME280;30576;42.098;24.876;2023-06-19T06:12:49;99525.88;;;25.47;47.94
44839;BME280;30576;42.098;24.876;2023-06-19T06:15:15;99522.81;;;25.74;49.35
44839;BME280;30576;42.098;24.876;2023-06-19T06:17:41;99527.69;;;26.14;48.01
44839;BME280;30576;42.098;24.876;2023-06-19T06:20:07;99527.63;;;26.25;47.74
44839;BME280;30576;42.098;24.876;2023-06-19T06:22:41;99523.88;;;26.17;46.93
44839;BME280;30576;42.098;24.876;2023-06-19T06:25:07;99515.22;;;26.55;49.32
44839;BME280;30576;42.098;24.876;2023-06-19T06:27:33;99512.13;;;26.39;46.50
44839;BME280;30576;42.098;24.876;2023-06-19T06:29:58;99541.09;;;26.48;48.00
44839;BME280;30576;42.098;24.876;2023-06-19T06:32:24;99531.81;;;26.62;47.09
44839;BME280;30576;42.098;24.876;2023-06-19T06:34:49;99566.16;;;27.25;47.61
44839;BME280;30576;42.098;24.876;2023-06-19T06:37:15;99491.25;;;27.04;45.40
44839;BME280;30576;42.098;24.876;2023-06-19T06:39:42;99565.94;;;27.07;46.76
44839;BME280;30576;42.098;24.876;2023-06-19T06:42:08;99508.47;;;27.03;44.49
44839;BME280;30576;42.098;24.876;2023-06-19T06:44:35;99492.66;;;26.77;44.47
44839;BME280;30576;42.098;24.876;2023-06-19T06:47:00;99485.97;;;27.03;43.97
44839;BME280;30576;42.098;24.876;2023-06-19T06:49:26;99496.03;;;27.22;45.12
44839;BME280;30576;42.098;24.876;2023-06-19T06:51:52;99490.47;;;26.92;44.42
44839;BME280;30576;42.098;24.876;2023-06-19T06:54:18;99502.00;;;27.15;44.26
44839;BME280;30576;42.098;24.876;2023-06-19T06:56:43;99537.75;;;27.61;43.89
44839;BME280;30576;42.098;24.876;2023-06-19T06:59:13;99526.50;;;28.07;45.56
44839;BME280;30576;42.098;24.876;2023-06-19T07:01:41;99506.09;;;28.02;42.42
44839;BME280;30576;42.098;24.876;2023-06-19T07:04:07;99532.31;;;27.61;43.38
44839;BME280;30576;42.098;24.876;2023-06-19T07:06:32;99517.97;;;27.71;42.07
44839;BME280;30576;42.098;24.876;2023-06-19T07:08:58;99517.56;;;27.85;42.75
44839;BME280;30576;42.098;24.876;2023-06-19T07:11:38;99502.06;;;27.87;43.58
44839;BME280;30576;42.098;24.876;2023-06-19T07:14:03;99510.75;;;27.50;41.54
44839;BME280;30576;42.098;24.876;2023-06-19T07:16:31;99497.66;;;27.55;41.91
44839;BME280;30576;42.098;24.876;2023-06-19T07:18:57;99488.78;;;27.84;42.33
44839;BME280;30576;42.098;24.876;2023-06-19T07:21:22;99538.19;;;27.97;43.40
44839;BME280;30576;42.098;24.876;2023-06-19T07:23:48;99503.16;;;27.75;41.64
44839;BME280;30576;42.098;24.876;2023-06-19T07:26:15;99577.78;;;28.19;41.67
44839;BME280;30576;42.098;24.876;2023-06-19T07:28:41;99466.56;;;27.49;41.51
44839;BME280;30576;42.098;24.876;2023-06-19T07:31:07;99503.13;;;28.06;43.37
44839;BME280;30576;42.098;24.876;2023-06-19T07:33:36;99507.59;;;28.46;40.80
44839;BME280;30576;42.098;24.876;2023-06-19T07:36:02;99491.41;;;28.93;40.91
44839;BME280;30576;42.098;24.876;2023-06-19T07:38:38;99518.56;;;28.83;39.45
44839;BME280;30576;42.098;24.876;2023-06-19T07:41:03;99491.72;;;28.12;39.56
44839;BME280;30576;42.098;24.876;2023-06-19T07:43:31;99502.13;;;28.16;40.44
44839;BME280;30576;42.098;24.876;2023-06-19T07:45:57;99549.41;;;28.53;40.61
44839;BME280;30576;42.098;24.876;2023-06-19T07:48:22;99569.13;;;28.94;41.92
44839;BME280;30576;42.098;24.876;2023-06-19T07:50:48;99525.13;;;29.00;41.13
44839;BME280;30576;42.098;24.876;2023-06-19T07:53:17;99546.34;;;29.44;39.68
44839;BME280;30576;42.098;24.876;2023-06-19T07:55:42;99504.09;;;29.02;39.15
44839;BME280;30576;42.098;24.876;2023-06-19T07:58:08;99534.66;;;29.24;37.57
44839;BME280;30576;42.098;24.876;2023-06-19T08:00:34;99522.09;;;29.60;41.79
44839;BME280;30576;42.098;24.876;2023-06-19T08:02:59;99534.88;;;29.50;38.23
44839;BME280;30576;42.098;24.876;2023-06-19T08:05:25;99544.41;;;29.07;37.82
44839;BME280;30576;42.098;24.876;2023-06-19T08:07:50;99511.72;;;28.79;40.33
44839;BME280;30576;42.098;24.876;2023-06-19T08:10:19;99533.13;;;29.21;39.84
44839;BME280;30576;42.098;24.876;2023-06-19T08:12:45;99538.91;;;29.36;38.78
44839;BME280;30576;42.098;24.876;2023-06-19T08:15:11;99573.06;;;29.49;38.17
44839;BME280;30576;42.098;24.876;2023-06-19T08:17:39;99555.41;;;29.62;37.43
44839;BME280;30576;42.098;24.876;2023-06-19T08:20:06;99538.63;;;29.39;38.31
44839;BME280;30576;42.098;24.876;2023-06-19T08:22:35;99583.41;;;30.10;37.83
44839;BME280;30576;42.098;24.876;2023-06-19T08:25:01;99582.25;;;30.13;37.68
44839;BME280;30576;42.098;24.876;2023-06-19T08:27:29;99532.88;;;30.35;38.88
44839;BME280;30576;42.098;24.876;2023-06-19T08:29:55;99528.25;;;30.18;38.20
44839;BME280;30576;42.098;24.876;2023-06-19T08:32:29;99550.88;;;30.18;36.44
44839;BME280;30576;42.098;24.876;2023-06-19T08:34:57;99533.91;;;29.79;36.86
44839;BME280;30576;42.098;24.876;2023-06-19T08:37:23;99531.56;;;29.56;38.79
44839;BME280;30576;42.098;24.876;2023-06-19T08:39:49;99491.78;;;29.65;36.49
44839;BME280;30576;42.098;24.876;2023-06-19T08:42:26;99512.06;;;29.33;37.24
44839;BME280;30576;42.098;24.876;2023-06-19T08:44:53;99531.69;;;29.64;37.97
44839;BME280;30576;42.098;24.876;2023-06-19T08:47:31;99591.53;;;30.38;36.89
44839;BME280;30576;42.098;24.876;2023-06-19T08:49:58;99511.75;;;29.74;37.22
44839;BME280;30576;42.098;24.876;2023-06-19T08:52:23;99513.44;;;29.75;38.03
44839;BME280;30576;42.098;24.876;2023-06-19T08:54:49;99520.78;;;30.02;36.44
44839;BME280;30576;42.098;24.876;2023-06-19T08:57:15;99552.28;;;30.23;35.64
44839;BME280;30576;42.098;24.876;2023-06-19T08:59:51;99533.91;;;30.52;36.69
44839;BME280;30576;42.098;24.876;2023-06-19T09:02:17;99508.81;;;31.29;35.01
44839;BME280;30576;42.098;24.876;2023-06-19T09:04:46;99574.06;;;31.31;35.61
44839;BME280;30576;42.098;24.876;2023-06-19T09:07:12;99511.50;;;31.21;37.08
44839;BME280;30576;42.098;24.876;2023-06-19T09:09:45;99517.13;;;30.57;36.88
44839;BME280;30576;42.098;24.876;2023-06-19T09:12:13;99548.47;;;30.97;37.32
44839;BME280;30576;42.098;24.876;2023-06-19T09:14:42;99499.88;;;30.93;37.53
44839;BME280;30576;42.098;24.876;2023-06-19T09:17:34;99499.00;;;30.92;35.29
44839;BME280;30576;42.098;24.876;2023-06-19T09:20:04;99495.25;;;30.85;34.42
44839;BME280;30576;42.098;24.876;2023-06-19T09:22:31;99495.31;;;31.19;36.53
44839;BME280;30576;42.098;24.876;2023-06-19T09:25:08;99503.94;;;31.33;36.80
44839;BME280;30576;42.098;24.876;2023-06-19T09:27:35;99551.22;;;31.05;35.09
44839;BME280;30576;42.098;24.876;2023-06-19T09:30:01;99493.16;;;30.61;37.75
44839;BME280;30576;42.098;24.876;2023-06-19T09:32:28;99518.97;;;30.39;36.20
44839;BME280;30576;42.098;24.876;2023-06-19T09:34:55;99529.09;;;31.00;36.22
44839;BME280;30576;42.098;24.876;2023-06-19T09:37:27;99490.94;;;30.10;34.42
44839;BME280;30576;42.098;24.876;2023-06-19T09:40:03;99476.16;;;30.59;35.05
44839;BME280;30576;42.098;24.876;2023-06-19T09:42:42;99507.81;;;31.04;33.63
44839;BME280;30576;42.098;24.876;2023-06-19T09:45:12;99459.81;;;30.59;34.56
44839;BME280;30576;42.098;24.876;2023-06-19T09:48:01;99527.38;;;30.63;35.49
44839;BME280;30576;42.098;24.876;2023-06-19T09:50:30;99463.28;;;30.69;32.43
44839;BME280;30576;42.098;24.876;2023-06-19T09:52:56;99490.16;;;31.08;37.41
44839;BME280;30576;42.098;24.876;2023-06-19T09:55:24;99468.72;;;31.13;35.02
44839;BME280;30576;42.098;24.876;2023-06-19T09:57:54;99444.78;;;30.73;36.62
44839;BME280;30576;42.098;24.876;2023-06-19T10:00:20;99464.25;;;31.04;35.88
44839;BME280;30576;42.098;24.876;2023-06-19T10:02:49;99486.72;;;31.06;35.01
44839;BME280;30576;42.098;24.876;2023-06-19T10:05:15;99490.78;;;31.02;33.44
44839;BME280;30576;42.098;24.876;2023-06-19T10:07:42;99454.16;;;31.31;33.67
44839;BME280;30576;42.098;24.876;2023-06-19T10:10:49;99458.13;;;31.02;36.08
44839;BME280;30576;42.098;24.876;2023-06-19T10:13:19;99497.84;;;31.82;37.32
44839;BME280;30576;42.098;24.876;2023-06-19T10:15:45;99473.25;;;31.65;35.61
44839;BME280;30576;42.098;24.876;2023-06-19T10:18:16;99439.78;;;31.47;36.78
44839;BME280;30576;42.098;24.876;2023-06-19T10:20:43;99436.06;;;31.21;35.20
44839;BME280;30576;42.098;24.876;2023-06-19T10:23:27;99453.25;;;31.48;38.30
44839;BME280;30576;42.098;24.876;2023-06-19T10:28:27;99499.38;;;32.52;37.89
44839;BME280;30576;42.098;24.876;2023-06-19T10:30:58;99436.97;;;31.65;31.18
44839;BME280;30576;42.098;24.876;2023-06-19T10:33:26;99452.47;;;32.15;34.50
44839;BME280;30576;42.098;24.876;2023-06-19T10:35:51;99508.66;;;32.08;30.93
44839;BME280;30576;42.098;24.876;2023-06-19T10:38:18;99484.13;;;31.57;33.76
44839;BME280;30576;42.098;24.876;2023-06-19T10:40:44;99493.06;;;31.75;32.33
44839;BME280;30576;42.098;24.876;2023-06-19T10:43:11;99446.72;;;31.75;32.87
44839;BME280;30576;42.098;24.876;2023-06-19T10:45:37;99429.25;;;32.19;30.65
44839;BME280;30576;42.098;24.876;2023-06-19T10:48:04;99441.53;;;32.31;30.35
44839;BME280;30576;42.098;24.876;2023-06-19T10:50:34;99426.28;;;31.88;31.20
44839;BME280;30576;42.098;24.876;2023-06-19T10:53:00;99474.50;;;32.38;35.64
44839;BME280;30576;42.098;24.876;2023-06-19T10:55:26;99407.38;;;31.78;32.23
44839;BME280;30576;42.098;24.876;2023-06-19T10:57:53;99441.75;;;31.71;33.93
44839;BME280;30576;42.098;24.876;2023-06-19T11:00:29;99433.97;;;31.84;32.62
44839;BME280;30576;42.098;24.876;2023-06-19T11:02:56;99436.47;;;31.77;32.97
44839;BME280;30576;42.098;24.876;2023-06-19T11:05:25;99424.66;;;32.11;33.64
44839;BME280;30576;42.098;24.876;2023-06-19T11:07:58;99447.00;;;32.56;33.04
44839;BME280;30576;42.098;24.876;2023-06-19T11:10:27;99412.88;;;32.19;33.26
44839;BME280;30576;42.098;24.876;2023-06-19T11:12:55;99459.63;;;32.90;32.61
44839;BME280;30576;42.098;24.876;2023-06-19T11:15:28;99382.38;;;32.57;30.42
44839;BME280;30576;42.098;24.876;2023-06-19T11:17:54;99441.88;;;32.53;29.93
44839;BME280;30576;42.098;24.876;2023-06-19T11:20:19;99430.47;;;32.58;30.16
44839;BME280;30576;42.098;24.876;2023-06-19T11:22:45;99428.78;;;32.81;29.79
44839;BME280;30576;42.098;24.876;2023-06-19T11:25:11;99396.69;;;32.59;29.97
44839;BME280;30576;42.098;24.876;2023-06-19T11:27:38;99442.75;;;32.87;28.69
44839;BME280;30576;42.098;24.876;2023-06-19T11:30:05;99393.47;;;32.14;30.91
44839;BME280;30576;42.098;24.876;2023-06-19T11:32:38;99399.78;;;32.47;31.30
44839;BME280;30576;42.098;24.876;2023-06-19T11:35:11;99443.63;;;32.71;31.44
44839;BME280;30576;42.098;24.876;2023-06-19T11:37:40;99393.19;;;33.06;32.62
44839;BME280;30576;42.098;24.876;2023-06-19T11:40:07;99398.56;;;32.83;34.51
44839;BME280;30576;42.098;24.876;2023-06-19T11:42:53;99407.53;;;33.08;32.13
44839;BME280;30576;42.098;24.876;2023-06-19T11:45:19;99408.38;;;33.09;32.00
44839;BME280;30576;42.098;24.876;2023-06-19T11:47:45;99407.88;;;33.53;30.06
44839;BME280;30576;42.098;24.876;2023-06-19T11:50:15;99453.94;;;33.33;30.53
44839;BME280;30576;42.098;24.876;2023-06-19T11:52:43;99438.19;;;33.35;31.16
44839;BME280;30576;42.098;24.876;2023-06-19T11:55:13;99394.13;;;32.57;29.35
44839;BME280;30576;42.098;24.876;2023-06-19T11:57:41;99404.31;;;32.96;30.70
44839;BME280;30576;42.098;24.876;2023-06-19T12:00:13;99416.06;;;33.22;30.04
44839;BME280;30576;42.098;24.876;2023-06-19T12:02:39;99400.19;;;33.09;29.83
44839;BME280;30576;42.098;24.876;2023-06-19T12:05:05;99400.34;;;33.55;29.58
44839;BME280;30576;42.098;24.876;2023-06-19T12:07:30;99420.19;;;33.88;35.04
44839;BME280;30576;42.098;24.876;2023-06-19T12:09:56;99420.66;;;33.61;34.05
44839;BME280;30576;42.098;24.876;2023-06-19T12:12:21;99397.78;;;33.53;31.11
44839;BME280;30576;42.098;24.876;2023-06-19T12:14:47;99400.09;;;33.42;30.55
44839;BME280;30576;42.098;24.876;2023-06-19T12:17:12;99402.41;;;33.53;28.79
44839;BME280;30576;42.098;24.876;2023-06-19T12:19:38;99412.59;;;33.76;30.75
44839;BME280;30576;42.098;24.876;2023-06-19T12:22:04;99381.66;;;33.67;30.63
44839;BME280;30576;42.098;24.876;2023-06-19T12:24:29;99386.38;;;33.50;29.09
44839;BME280;30576;42.098;24.876;2023-06-19T12:26:55;99360.38;;;33.23;30.83
44839;BME280;30576;42.098;24.876;2023-06-19T12:29:20;99412.28;;;33.31;29.85
44839;BME280;30576;42.098;24.876;2023-06-19T12:31:46;99346.94;;;33.05;26.85
44839;BME280;30576;42.098;24.876;2023-06-19T12:34:11;99335.72;;;32.91;27.75
44839;BME280;30576;42.098;24.876;2023-06-19T12:36:37;99355.41;;;33.26;27.41
44839;BME280;30576;42.098;24.876;2023-06-19T12:39:02;99363.94;;;32.75;30.97
44839;BME280;30576;42.098;24.876;2023-06-19T12:41:31;99365.63;;;33.32;30.48
44839;BME280;30576;42.098;24.876;2023-06-19T12:43:56;99346.38;;;33.17;30.23
44839;BME280;30576;42.098;24.876;2023-06-19T12:46:22;99353.41;;;33.20;29.80
44839;BME280;30576;42.098;24.876;2023-06-19T12:48:48;99353.38;;;33.12;29.28
44839;BME280;30576;42.098;24.876;2023-06-19T12:51:17;99357.31;;;33.49;29.05
44839;BME280;30576;42.098;24.876;2023-06-19T12:53:43;99346.97;;;33.67;29.40
44839;BME280;30576;42.098;24.876;2023-06-19T12:56:09;99348.72;;;33.92;30.83